YQT weather

Thunder Bay Airport
Thunder Bay, Ontario, Canada

Public forecast

Using degrees Celsius for public forecast. Weather courtesy of forecast.io.

METAR (pilot weather report)

Retrieved 2019/03/21 01:00 UTC (36 minutes ago):

CYQT 210100Z VRB02KT 15SM BKN037 03/M00 A3002 RMK SC6 SLP177

TAF (pilot weather forecast)

Retrieved 2019/03/21 02:39 UTC (0 seconds ago):

TAF CYQT 210138Z 2102/2114 32005KT P6SM FEW020 BKN040 TEMPO 2102/2109 BKN020 OVC040 FM210900 25006KT P6SM SCT030 RMK NXT FCST BY 210800Z